createdAt,value
2018-07-26T00:01:24.709Z,4.65
2018-07-26T00:03:54.096Z,5.20
2018-07-26T00:06:23.258Z,5.20
2018-07-26T00:08:52.550Z,5.55
2018-07-26T00:11:21.690Z,5.92
2018-07-26T00:13:50.892Z,5.30
2018-07-26T00:16:20.074Z,6.15
2018-07-26T00:18:49.196Z,5.65
2018-07-26T00:21:18.367Z,5.87
2018-07-26T00:23:47.516Z,6.03
2018-07-26T00:26:16.360Z,5.58
2018-07-26T00:28:45.425Z,5.60
2018-07-26T00:31:14.545Z,4.70
2018-07-26T00:33:43.689Z,4.60
2018-07-26T00:36:12.836Z,4.72
2018-07-26T00:38:42.030Z,4.70
2018-07-26T00:41:11.221Z,4.90
2018-07-26T00:43:40.347Z,4.30
2018-07-26T00:46:09.446Z,4.97
2018-07-26T00:48:38.669Z,4.87
2018-07-26T00:51:07.801Z,5.05
2018-07-26T00:53:36.972Z,4.85
2018-07-26T00:56:06.109Z,5.00
2018-07-26T00:58:35.278Z,4.78
2018-07-26T01:01:04.748Z,4.80
2018-07-26T01:03:33.952Z,5.42
2018-07-26T01:06:03.089Z,5.78
2018-07-26T01:08:32.198Z,4.70
2018-07-26T01:11:01.421Z,5.05
2018-07-26T01:13:30.642Z,5.20
2018-07-26T01:15:59.907Z,5.05
2018-07-26T01:18:29.057Z,5.50
2018-07-26T01:20:58.234Z,5.42
2018-07-26T01:23:28.236Z,5.40
2018-07-26T01:25:57.420Z,5.05
2018-07-26T01:28:26.546Z,5.10
2018-07-26T01:30:55.978Z,5.70
2018-07-26T01:33:25.051Z,5.53
2018-07-26T01:35:54.169Z,5.75
2018-07-26T01:38:23.286Z,5.87
2018-07-26T01:40:52.534Z,5.35
2018-07-26T01:43:48.957Z,5.70
2018-07-26T01:46:19.402Z,6.10
2018-07-26T01:48:48.225Z,5.33
2018-07-26T01:51:17.257Z,5.77
2018-07-26T01:53:46.497Z,5.93
2018-07-26T01:56:15.681Z,6.10
2018-07-26T01:58:44.799Z,5.80
2018-07-26T02:01:14.132Z,5.00
2018-07-26T02:03:43.279Z,6.28
2018-07-26T02:06:12.455Z,5.70
2018-07-26T02:08:41.625Z,5.90
2018-07-26T02:11:10.817Z,6.00
2018-07-26T02:13:39.977Z,5.85
2018-07-26T02:16:09.154Z,6.17
2018-07-26T02:18:38.350Z,6.03
2018-07-26T02:21:07.530Z,6.00
2018-07-26T02:23:36.752Z,5.75
2018-07-26T02:26:06.132Z,6.20
2018-07-26T02:28:35.283Z,6.67
2018-07-26T02:31:04.538Z,6.73
2018-07-26T02:33:33.688Z,7.47
2018-07-26T02:36:02.882Z,6.57
2018-07-26T02:38:32.090Z,6.13
2018-07-26T02:41:01.269Z,6.40
2018-07-26T02:43:30.438Z,6.27
2018-07-26T02:45:59.557Z,6.25
2018-07-26T02:48:28.707Z,6.10
2018-07-26T02:50:57.857Z,6.30
2018-07-26T02:53:26.967Z,6.00
2018-07-26T02:55:56.147Z,5.92
2018-07-26T02:58:25.285Z,5.70
2018-07-26T03:00:54.438Z,6.33
2018-07-26T03:03:23.594Z,6.13
2018-07-26T03:05:52.756Z,6.20
2018-07-26T03:08:21.878Z,5.83
2018-07-26T03:10:51.117Z,6.27
2018-07-26T03:13:20.267Z,6.60
2018-07-26T03:15:49.409Z,5.80
2018-07-26T03:18:18.606Z,5.57
2018-07-26T03:20:47.563Z,6.07
2018-07-26T03:23:16.598Z,5.13
2018-07-26T03:25:45.739Z,5.33
2018-07-26T03:28:14.929Z,5.73
2018-07-26T03:30:44.186Z,4.70
2018-07-26T03:33:13.375Z,4.60
2018-07-26T03:35:42.539Z,5.40
2018-07-26T03:38:11.978Z,5.73
2018-07-26T03:40:41.122Z,5.00
2018-07-26T03:43:10.493Z,5.30
2018-07-26T03:45:39.677Z,5.03
2018-07-26T03:48:08.842Z,5.00
2018-07-26T03:50:37.986Z,4.90
2018-07-26T03:53:07.174Z,5.57
2018-07-26T03:55:36.310Z,5.03
2018-07-26T03:58:05.819Z,4.67
2018-07-26T04:00:34.893Z,5.23
2018-07-26T04:03:04.089Z,5.27
2018-07-26T04:05:33.255Z,5.30
2018-07-26T04:08:02.334Z,5.50
2018-07-26T04:10:31.493Z,5.90
2018-07-26T04:13:00.672Z,5.33
2018-07-26T04:15:29.764Z,5.47
2018-07-26T04:18:03.857Z,5.43
2018-07-26T04:20:33.033Z,6.37
2018-07-26T04:23:02.370Z,5.80
2018-07-26T04:25:32.287Z,5.60
2018-07-26T04:28:02.496Z,5.90
2018-07-26T04:30:31.682Z,5.40
2018-07-26T04:33:00.816Z,5.63
2018-07-26T04:35:29.951Z,5.77
2018-07-26T04:37:59.131Z,5.67
2018-07-26T04:40:28.307Z,5.37
2018-07-26T04:42:57.445Z,5.33
2018-07-26T04:45:26.543Z,5.23
2018-07-26T04:47:55.703Z,6.03
2018-07-26T04:50:24.850Z,5.90
2018-07-26T04:52:54.065Z,5.83
2018-07-26T04:55:23.138Z,5.40
2018-07-26T04:57:52.301Z,5.73
2018-07-26T05:00:21.509Z,5.37
2018-07-26T05:02:50.641Z,5.50
2018-07-26T05:05:19.810Z,6.20
2018-07-26T05:07:48.935Z,6.37
2018-07-26T05:10:18.071Z,6.47
2018-07-26T05:12:47.210Z,7.07
2018-07-26T05:15:17.394Z,7.17
2018-07-26T05:17:46.522Z,7.40
2018-07-26T05:20:16.143Z,6.93
2018-07-26T05:22:45.266Z,7.00
2018-07-26T05:25:14.486Z,7.33
2018-07-26T05:27:43.798Z,6.73
2018-07-26T05:30:12.918Z,7.17
2018-07-26T05:32:42.071Z,6.73
2018-07-26T05:35:11.552Z,6.67
2018-07-26T05:37:40.794Z,7.40
2018-07-26T05:40:09.942Z,6.50
2018-07-26T05:42:39.362Z,6.53
2018-07-26T05:45:08.558Z,7.40
2018-07-26T05:47:37.770Z,7.60
2018-07-26T05:50:08.093Z,7.67
2018-07-26T05:52:37.909Z,7.80
2018-07-26T05:55:07.787Z,6.93
2018-07-26T05:57:37.068Z,7.40
2018-07-26T06:00:09.007Z,6.63
2018-07-26T06:02:38.181Z,7.10
2018-07-26T06:05:07.757Z,6.93
2018-07-26T06:07:36.620Z,6.87
2018-07-26T06:10:06.796Z,7.00
2018-07-26T06:12:35.938Z,7.77
2018-07-26T06:15:07.434Z,7.03
2018-07-26T06:17:36.708Z,7.07
2018-07-26T06:20:07.554Z,7.27
2018-07-26T06:22:36.706Z,7.87
2018-07-26T06:25:06.321Z,7.73
2018-07-26T06:27:35.529Z,8.53
2018-07-26T06:30:07.397Z,9.63
2018-07-26T06:32:36.565Z,8.97
2018-07-26T06:35:06.402Z,8.57
2018-07-26T06:37:35.548Z,9.00
2018-07-26T06:40:05.462Z,8.70
2018-07-26T06:42:34.712Z,8.30
2018-07-26T06:45:04.057Z,8.90
2018-07-26T06:47:33.220Z,8.90
2018-07-26T06:50:02.372Z,7.90
2018-07-26T06:52:31.579Z,7.87
2018-07-26T06:55:00.714Z,7.35
2018-07-26T06:57:29.876Z,7.83
2018-07-26T06:59:59.105Z,9.10
2018-07-26T07:02:30.050Z,7.58
2018-07-26T07:04:59.267Z,8.25
2018-07-26T07:07:28.410Z,8.10
2018-07-26T07:09:57.804Z,7.37
2018-07-26T07:12:33.281Z,7.25
2018-07-26T07:15:02.453Z,7.12
2018-07-26T07:17:31.719Z,6.60
2018-07-26T07:20:00.902Z,7.22
2018-07-26T07:22:30.035Z,7.65
2018-07-26T07:24:59.410Z,7.12
2018-07-26T07:27:28.558Z,7.15
2018-07-26T07:29:57.741Z,6.50
2018-07-26T07:32:26.878Z,6.83
2018-07-26T07:34:56.063Z,6.72
2018-07-26T07:37:25.405Z,6.37
2018-07-26T07:39:54.598Z,6.42
2018-07-26T07:42:23.947Z,6.85
2018-07-26T07:44:53.126Z,6.62
2018-07-26T07:47:22.340Z,7.20
2018-07-26T07:49:51.433Z,6.30
2018-07-26T07:52:20.706Z,6.12
2018-07-26T07:54:50.257Z,6.03
2018-07-26T07:57:19.471Z,5.80
2018-07-26T07:59:49.446Z,5.58
2018-07-26T08:02:18.545Z,6.17
2018-07-26T08:04:48.466Z,5.70
2018-07-26T08:07:17.793Z,5.90
2018-07-26T08:09:47.332Z,5.87
2018-07-26T08:12:16.164Z,5.90
2018-07-26T08:14:45.379Z,5.70
2018-07-26T08:17:14.793Z,5.15
2018-07-26T08:19:43.936Z,5.05
2018-07-26T08:22:13.054Z,4.78
2018-07-26T08:24:42.309Z,5.22
2018-07-26T08:27:11.683Z,5.55
2018-07-26T08:29:40.831Z,5.37
2018-07-26T08:32:10.132Z,5.33
2018-07-26T08:34:39.435Z,4.80
2018-07-26T08:37:08.637Z,5.03
2018-07-26T08:39:37.888Z,4.78
2018-07-26T08:42:07.293Z,4.80
2018-07-26T08:44:36.464Z,4.90
2018-07-26T08:47:06.035Z,9.03
2018-07-26T08:49:35.605Z,4.78
2018-07-26T08:52:05.080Z,4.58
2018-07-26T08:54:34.474Z,4.65
2018-07-26T08:57:03.791Z,4.55
2018-07-26T08:59:33.232Z,4.65
2018-07-26T09:02:02.411Z,4.65
2018-07-26T09:04:31.575Z,4.55
2018-07-26T09:07:00.725Z,4.40
2018-07-26T09:09:29.900Z,4.45
2018-07-26T09:11:59.016Z,4.05
2018-07-26T09:14:28.136Z,3.92
2018-07-26T09:16:57.849Z,4.67
2018-07-26T09:19:27.006Z,4.00
2018-07-26T09:21:56.134Z,3.85
2018-07-26T09:24:27.483Z,3.75
2018-07-26T09:26:56.574Z,3.80
2018-07-26T09:29:25.781Z,3.50
2018-07-26T09:31:55.009Z,3.22
2018-07-26T09:34:24.261Z,3.27
2018-07-26T09:36:53.411Z,3.20
2018-07-26T09:39:22.653Z,2.30
2018-07-26T09:41:51.870Z,9.70
2018-07-26T09:44:21.053Z,6.37
2018-07-26T09:46:50.242Z,2.92
2018-07-26T09:49:19.395Z,2.45
2018-07-26T09:51:49.215Z,4.75
2018-07-26T09:54:18.358Z,2.10
2018-07-26T09:56:47.504Z,2.08
2018-07-26T09:59:16.673Z,2.60
2018-07-26T10:01:45.873Z,2.10
2018-07-26T10:04:15.034Z,3.15
2018-07-26T10:06:43.913Z,2.90
2018-07-26T10:09:13.233Z,2.20
2018-07-26T10:11:42.447Z,2.98
2018-07-26T10:14:11.577Z,2.52
2018-07-26T10:16:40.836Z,2.47
2018-07-26T10:19:10.190Z,2.60
2018-07-26T10:21:39.379Z,2.67
2018-07-26T10:24:08.500Z,2.40
2018-07-26T10:26:37.638Z,2.98
2018-07-26T10:29:06.885Z,2.70
2018-07-26T10:31:36.009Z,2.50
2018-07-26T10:34:05.217Z,2.65
2018-07-26T10:36:34.374Z,2.42
2018-07-26T10:39:03.911Z,2.60
2018-07-26T10:41:33.124Z,2.50
2018-07-26T10:44:02.293Z,2.25
2018-07-26T10:46:31.494Z,2.58
2018-07-26T10:49:00.611Z,2.17
2018-07-26T10:51:30.115Z,2.02
2018-07-26T10:53:59.255Z,2.87
2018-07-26T10:56:28.830Z,2.37
2018-07-26T10:58:57.949Z,2.05
2018-07-26T11:01:27.096Z,1.87
2018-07-26T11:03:56.243Z,13.25
2018-07-26T11:06:25.375Z,2.83
2018-07-26T11:08:54.482Z,3.47
2018-07-26T11:11:23.670Z,2.65
2018-07-26T11:13:52.789Z,2.35
2018-07-26T11:16:21.905Z,2.40
2018-07-26T11:18:51.085Z,2.15
2018-07-26T11:21:20.629Z,5.55
2018-07-26T11:23:49.678Z,2.22
2018-07-26T11:26:18.873Z,1.98
2018-07-26T11:28:48.050Z,4.28
2018-07-26T11:31:17.206Z,1.98
2018-07-26T11:33:46.334Z,1.85
2018-07-26T11:36:15.476Z,1.95
2018-07-26T11:38:44.678Z,2.83
2018-07-26T11:41:13.947Z,2.30
2018-07-26T11:43:43.219Z,1.62
2018-07-26T11:46:12.321Z,2.02
2018-07-26T11:48:41.472Z,2.00
2018-07-26T11:51:10.624Z,2.17
2018-07-26T11:53:39.955Z,2.08
2018-07-26T11:56:09.087Z,2.20
2018-07-26T11:58:38.211Z,2.05
2018-07-26T12:01:13.007Z,2.55
2018-07-26T12:03:42.179Z,2.27
2018-07-26T12:06:11.341Z,2.10
2018-07-26T12:08:40.549Z,2.00
2018-07-26T12:11:09.861Z,1.98
2018-07-26T12:13:39.028Z,2.98
2018-07-26T12:16:08.217Z,2.10
2018-07-26T12:18:37.338Z,2.40
2018-07-26T12:21:06.498Z,3.27
2018-07-26T12:23:35.619Z,2.05
2018-07-26T12:26:04.825Z,2.05
2018-07-26T12:28:33.982Z,2.05
2018-07-26T12:31:03.370Z,1.90
2018-07-26T12:33:32.859Z,2.08
2018-07-26T12:36:02.164Z,1.90
2018-07-26T12:38:31.366Z,2.33
2018-07-26T12:41:00.706Z,2.20
2018-07-26T12:43:29.974Z,2.08
2018-07-26T12:45:59.085Z,1.87
2018-07-26T12:48:28.238Z,2.05
2018-07-26T12:50:57.517Z,2.10
2018-07-26T12:53:27.275Z,2.30
2018-07-26T12:55:57.747Z,2.15
2018-07-26T12:58:26.937Z,1.75
2018-07-26T13:00:56.133Z,2.72
2018-07-26T13:03:25.320Z,2.05
2018-07-26T13:05:54.687Z,2.02
2018-07-26T13:08:23.812Z,1.95
2018-07-26T13:10:53.422Z,2.30
2018-07-26T13:13:22.538Z,2.45
2018-07-26T13:15:51.732Z,2.70
2018-07-26T13:18:20.874Z,1.80
2018-07-26T13:20:50.045Z,1.80
2018-07-26T13:23:19.193Z,2.33
2018-07-26T13:25:48.802Z,2.08
2018-07-26T13:28:18.388Z,2.27
2018-07-26T13:30:47.549Z,2.02
2018-07-26T13:33:16.713Z,2.15
2018-07-26T13:35:45.946Z,1.95
2018-07-26T13:38:15.152Z,3.65
2018-07-26T13:40:44.425Z,2.50
2018-07-26T13:43:13.661Z,2.42
2018-07-26T13:45:42.835Z,1.95
2018-07-26T13:48:12.046Z,2.42
2018-07-26T13:50:41.679Z,1.90
2018-07-26T13:53:10.874Z,2.30
2018-07-26T13:55:40.075Z,2.55
2018-07-26T13:58:09.625Z,2.50
2018-07-26T14:00:38.792Z,2.30
2018-07-26T14:03:07.995Z,3.30
2018-07-26T14:05:37.251Z,1.95
2018-07-26T14:08:06.421Z,2.30
2018-07-26T14:10:35.614Z,2.20
2018-07-26T14:13:04.850Z,2.15
2018-07-26T14:15:34.041Z,3.47
2018-07-26T14:18:03.285Z,2.35
2018-07-26T14:20:32.427Z,2.10
2018-07-26T14:23:01.617Z,2.30
2018-07-26T14:25:30.742Z,2.08
2018-07-26T14:28:00.045Z,2.52
2018-07-26T14:30:29.165Z,2.50
2018-07-26T14:32:58.374Z,2.85
2018-07-26T14:35:27.559Z,2.22
2018-07-26T14:37:56.470Z,2.22
2018-07-26T14:40:25.602Z,2.65
2018-07-26T14:42:54.858Z,2.90
2018-07-26T14:45:24.141Z,2.50
2018-07-26T14:47:53.596Z,2.58
2018-07-26T14:50:23.510Z,2.55
2018-07-26T14:52:53.580Z,2.45
2018-07-26T14:55:22.836Z,2.65
2018-07-26T14:57:52.055Z,2.10
2018-07-26T15:00:21.246Z,2.42
2018-07-26T15:02:50.510Z,2.60
2018-07-26T15:05:19.737Z,2.52
2018-07-26T15:07:49.140Z,2.80
2018-07-26T15:10:18.329Z,2.55
2018-07-26T15:12:47.500Z,2.17
2018-07-26T15:15:16.706Z,2.90
2018-07-26T15:17:45.886Z,2.40
2018-07-26T15:20:15.161Z,2.72
2018-07-26T15:22:44.319Z,2.47
2018-07-26T15:25:17.411Z,2.52
2018-07-26T15:27:46.665Z,2.60
2018-07-26T15:30:15.837Z,3.55
2018-07-26T15:32:45.041Z,3.72
2018-07-26T15:35:14.253Z,2.72
2018-07-26T15:37:43.579Z,2.35
2018-07-26T15:40:12.783Z,2.85
2018-07-26T15:42:41.973Z,2.65
2018-07-26T15:45:11.113Z,2.98
2018-07-26T15:47:40.339Z,3.25
2018-07-26T15:50:09.436Z,2.80
2018-07-26T15:52:38.618Z,2.98
2018-07-26T15:55:07.729Z,3.40
2018-07-26T15:57:37.029Z,3.67
2018-07-26T16:00:09.041Z,2.95
2018-07-26T16:02:38.179Z,2.70
2018-07-26T16:05:08.101Z,3.10
2018-07-26T16:07:37.705Z,3.98
2018-07-26T16:10:07.804Z,3.37
2018-07-26T16:12:37.107Z,3.27
2018-07-26T16:15:08.694Z,3.10
2018-07-26T16:17:37.939Z,3.77
2018-07-26T16:20:08.554Z,3.90
2018-07-26T16:22:37.885Z,3.62
2018-07-26T16:25:08.565Z,3.52
2018-07-26T16:27:37.829Z,3.92
2018-07-26T16:30:10.644Z,4.60
2018-07-26T16:32:39.845Z,9.00
2018-07-26T16:35:09.427Z,3.80
2018-07-26T16:37:38.596Z,6.47
2018-07-26T16:40:08.007Z,17.20
2018-07-26T16:42:37.100Z,6.55
2018-07-26T16:45:07.174Z,6.25
2018-07-26T16:47:36.417Z,3.90
2018-07-26T16:50:05.310Z,3.45
2018-07-26T16:52:34.341Z,6.72
2018-07-26T16:55:03.517Z,5.28
2018-07-26T16:57:33.096Z,3.50
2018-07-26T17:00:02.264Z,3.60
2018-07-26T17:02:31.422Z,4.40
2018-07-26T17:05:00.636Z,3.40
2018-07-26T17:07:29.806Z,4.30
2018-07-26T17:09:58.942Z,3.33
2018-07-26T17:12:28.134Z,4.83
2018-07-26T17:14:57.310Z,3.35
2018-07-26T17:17:26.486Z,3.55
2018-07-26T17:19:55.945Z,3.35
2018-07-26T17:22:25.094Z,3.60
2018-07-26T17:24:54.321Z,3.58
2018-07-26T17:27:23.530Z,3.77
2018-07-26T17:29:53.537Z,3.50
2018-07-26T17:32:22.743Z,3.90
2018-07-26T17:34:51.899Z,2.80
2018-07-26T17:37:21.552Z,3.58
2018-07-26T17:39:51.083Z,2.98
2018-07-26T17:42:20.419Z,3.05
2018-07-26T17:44:49.662Z,3.05
2018-07-26T17:47:18.834Z,2.90
2018-07-26T17:49:47.949Z,3.17
2018-07-26T17:52:17.193Z,3.45
2018-07-26T17:54:46.328Z,3.27
2018-07-26T17:57:15.451Z,3.55
2018-07-26T17:59:44.813Z,3.40
2018-07-26T18:02:14.010Z,3.95
2018-07-26T18:04:43.190Z,3.55
2018-07-26T18:07:12.297Z,3.30
2018-07-26T18:09:41.732Z,2.85
2018-07-26T18:12:10.921Z,2.92
2018-07-26T18:14:40.148Z,3.17
2018-07-26T18:17:09.270Z,2.72
2018-07-26T18:19:38.466Z,2.60
2018-07-26T18:22:07.639Z,2.95
2018-07-26T18:24:36.765Z,3.05
2018-07-26T18:27:05.963Z,3.05
2018-07-26T18:29:35.185Z,3.42
2018-07-26T18:32:04.426Z,3.47
2018-07-26T18:34:33.570Z,3.33
2018-07-26T18:37:02.746Z,3.10
2018-07-26T18:39:31.817Z,3.20
2018-07-26T18:42:00.957Z,3.67
2018-07-26T18:44:30.074Z,3.20
2018-07-26T18:46:59.282Z,3.40
2018-07-26T18:49:28.478Z,3.00
2018-07-26T18:51:57.635Z,3.20
2018-07-26T18:54:26.777Z,3.02
2018-07-26T18:56:55.973Z,3.10
2018-07-26T18:59:25.184Z,3.22
2018-07-26T19:01:54.425Z,3.58
2018-07-26T19:04:24.619Z,3.40
2018-07-26T19:06:53.762Z,3.95
2018-07-26T19:09:22.946Z,3.12
2018-07-26T19:11:52.157Z,3.00
2018-07-26T19:14:21.273Z,3.30
2018-07-26T19:16:50.414Z,3.47
2018-07-26T19:19:19.745Z,3.55
2018-07-26T19:21:48.967Z,3.22
2018-07-26T19:24:18.151Z,3.35
2018-07-26T19:26:47.384Z,3.17
2018-07-26T19:29:16.560Z,2.92
2018-07-26T19:31:45.738Z,3.20
2018-07-26T19:34:14.996Z,3.67
2018-07-26T19:36:44.379Z,3.55
2018-07-26T19:39:13.754Z,3.37
2018-07-26T19:41:43.189Z,3.37
2018-07-26T19:44:12.593Z,3.83
2018-07-26T19:46:41.672Z,4.35
2018-07-26T19:49:10.928Z,3.75
2018-07-26T19:51:40.145Z,4.12
2018-07-26T19:54:09.352Z,3.98
2018-07-26T19:56:38.528Z,4.00
2018-07-26T19:59:07.737Z,4.08
2018-07-26T20:01:36.936Z,3.65
2018-07-26T20:04:06.989Z,4.28
2018-07-26T20:06:36.402Z,4.22
2018-07-26T20:09:08.458Z,4.17
2018-07-26T20:11:37.694Z,3.55
2018-07-26T20:14:08.168Z,3.80
2018-07-26T20:16:38.209Z,4.37
2018-07-26T20:19:07.126Z,3.92
2018-07-26T20:21:36.196Z,4.42
2018-07-26T20:24:05.485Z,4.42
2018-07-26T20:26:35.430Z,4.25
2018-07-26T20:29:04.596Z,4.65
2018-07-26T20:31:33.847Z,5.37
2018-07-26T20:34:03.092Z,6.45
2018-07-26T20:36:32.317Z,5.53
2018-07-26T20:39:01.548Z,4.05
2018-07-26T20:41:30.696Z,4.65
2018-07-26T20:43:59.873Z,4.35
2018-07-26T20:46:29.078Z,4.08
2018-07-26T20:48:58.289Z,4.00
2018-07-26T20:51:27.505Z,3.95
2018-07-26T20:53:56.743Z,4.92
2018-07-26T20:56:25.894Z,4.25
2018-07-26T20:58:55.077Z,4.45
2018-07-26T21:01:24.250Z,5.45
2018-07-26T21:03:53.478Z,4.33
2018-07-26T21:06:22.671Z,4.10
2018-07-26T21:08:51.851Z,4.20
2018-07-26T21:11:21.149Z,4.28
2018-07-26T21:13:50.330Z,4.58
2018-07-26T21:16:19.558Z,4.40
2018-07-26T21:18:48.553Z,3.87
2018-07-26T21:21:17.650Z,4.00
2018-07-26T21:23:46.868Z,3.77
2018-07-26T21:26:16.062Z,3.80
2018-07-26T21:28:45.359Z,3.37
2018-07-26T21:31:14.569Z,4.00
2018-07-26T21:33:43.721Z,3.77
2018-07-26T21:36:12.954Z,4.08
2018-07-26T21:38:42.133Z,4.20
2018-07-26T21:41:11.341Z,3.85
2018-07-26T21:43:40.484Z,3.40
2018-07-26T21:46:09.652Z,3.87
2018-07-26T21:48:38.880Z,3.62
2018-07-26T21:51:08.834Z,3.83
2018-07-26T21:53:37.996Z,5.58
2018-07-26T21:56:07.543Z,4.75
2018-07-26T21:58:36.714Z,3.47
2018-07-26T22:01:05.977Z,4.28
2018-07-26T22:03:35.146Z,3.95
2018-07-26T22:06:04.046Z,3.83
2018-07-26T22:08:33.033Z,4.62
2018-07-26T22:11:02.256Z,4.28
2018-07-26T22:13:31.447Z,4.05
2018-07-26T22:16:00.664Z,3.90
2018-07-26T22:18:29.849Z,3.85
2018-07-26T22:20:59.053Z,3.83
2018-07-26T22:23:28.257Z,4.30
2018-07-26T22:25:57.398Z,3.98
2018-07-26T22:28:27.582Z,4.12
2018-07-26T22:30:56.773Z,4.08
2018-07-26T22:33:25.913Z,4.10
2018-07-26T22:35:55.047Z,3.90
2018-07-26T22:38:24.234Z,4.15
2018-07-26T22:40:53.477Z,3.60
2018-07-26T22:43:22.634Z,3.67
2018-07-26T22:45:51.813Z,3.75
2018-07-26T22:48:20.942Z,3.90
2018-07-26T22:50:50.181Z,4.80
2018-07-26T22:53:19.358Z,4.00
2018-07-26T22:55:48.519Z,4.30
2018-07-26T22:58:17.613Z,4.17
2018-07-26T23:00:46.869Z,4.53
2018-07-26T23:03:16.093Z,4.30
2018-07-26T23:05:50.024Z,4.55
2018-07-26T23:08:19.113Z,3.83
2018-07-26T23:10:48.352Z,3.87
2018-07-26T23:13:17.555Z,3.87
2018-07-26T23:15:46.726Z,4.80
2018-07-26T23:18:15.890Z,4.65
2018-07-26T23:20:45.019Z,4.87
2018-07-26T23:23:14.149Z,4.55
2018-07-26T23:25:43.257Z,4.90
2018-07-26T23:28:12.421Z,4.50
2018-07-26T23:30:41.712Z,4.60
2018-07-26T23:33:10.889Z,4.25
2018-07-26T23:35:40.050Z,4.60
2018-07-26T23:38:09.214Z,4.10
2018-07-26T23:40:38.355Z,4.75
2018-07-26T23:43:07.513Z,4.97
2018-07-26T23:45:36.699Z,4.83
2018-07-26T23:48:06.362Z,5.35
2018-07-26T23:50:35.456Z,5.08
2018-07-26T23:53:04.738Z,5.20
2018-07-26T23:55:33.872Z,4.60
2018-07-26T23:58:02.991Z,5.30
